createdAt,value
2022-12-23T00:01:45.899Z,5.50
2022-12-23T00:04:12.466Z,5.85
2022-12-23T00:06:39.051Z,6.28
2022-12-23T00:09:05.531Z,6.33
2022-12-23T00:11:31.999Z,6.57
2022-12-23T00:14:21.670Z,6.35
2022-12-23T00:16:50.197Z,6.93
2022-12-23T00:19:16.891Z,7.22
2022-12-23T00:21:43.327Z,7.23
2022-12-23T00:24:11.379Z,7.63
2022-12-23T00:26:37.859Z,6.90
2022-12-23T00:29:04.291Z,7.32
2022-12-23T00:31:30.910Z,7.20
2022-12-23T00:33:57.432Z,7.23
2022-12-23T00:36:29.016Z,6.22
2022-12-23T00:39:20.040Z,5.95
2022-12-23T00:42:05.242Z,5.65
2022-12-23T00:44:32.446Z,5.38
2022-12-23T00:46:58.953Z,5.27
2022-12-23T00:49:43.756Z,5.47
2022-12-23T00:52:13.465Z,5.28
2022-12-23T00:54:40.272Z,5.90
2022-12-23T00:57:06.754Z,5.68
2022-12-23T00:59:33.553Z,5.67
2022-12-23T01:02:18.919Z,5.95
2022-12-23T01:05:04.156Z,4.85
2022-12-23T01:07:30.593Z,4.43
2022-12-23T01:09:57.061Z,5.15
2022-12-23T01:12:23.502Z,4.40
2022-12-23T01:14:49.978Z,4.45
2022-12-23T01:17:16.491Z,4.25
2022-12-23T01:19:43.187Z,4.50
2022-12-23T01:22:09.836Z,3.97
2022-12-23T01:24:36.400Z,4.07
2022-12-23T01:27:02.922Z,3.85
2022-12-23T01:29:30.096Z,3.83
2022-12-23T01:31:56.827Z,3.53
2022-12-23T01:34:23.282Z,3.88
2022-12-23T01:36:49.896Z,4.00
2022-12-23T01:39:16.397Z,4.07
2022-12-23T01:42:21.281Z,4.18
2022-12-23T01:44:59.187Z,4.15
2022-12-23T01:47:40.535Z,4.75
2022-12-23T01:50:13.040Z,5.87
2022-12-23T01:52:47.913Z,5.07
2022-12-23T01:55:19.288Z,4.60
2022-12-23T01:57:47.119Z,4.53
2022-12-23T02:00:33.206Z,4.80
2022-12-23T02:03:18.881Z,4.17
2022-12-23T02:05:46.977Z,4.68
2022-12-23T02:08:34.512Z,5.07
2022-12-23T02:11:27.842Z,3.72
2022-12-23T02:14:45.565Z,3.65
2022-12-23T02:17:39.326Z,3.33
2022-12-23T02:20:17.374Z,3.85
2022-12-23T02:23:15.421Z,3.67
2022-12-23T02:25:55.386Z,4.40
2022-12-23T02:28:59.534Z,4.35
2022-12-23T02:31:49.319Z,3.53
2022-12-23T02:34:40.400Z,4.32
2022-12-23T02:37:18.071Z,4.47
2022-12-23T02:40:02.996Z,4.25
2022-12-23T02:42:39.719Z,4.50
2022-12-23T02:45:20.137Z,3.67
2022-12-23T02:47:52.566Z,4.10
2022-12-23T02:50:28.767Z,3.85
2022-12-23T02:53:00.427Z,4.45
2022-12-23T02:55:32.322Z,4.75
2022-12-23T02:58:03.110Z,3.70
2022-12-23T03:00:30.710Z,4.32
2022-12-23T03:02:57.361Z,4.63
2022-12-23T03:05:26.455Z,4.53
2022-12-23T03:07:55.027Z,3.83
2022-12-23T03:10:46.387Z,4.20
2022-12-23T03:13:12.935Z,4.00
2022-12-23T03:16:12.116Z,3.83
2022-12-23T03:19:03.566Z,3.85
2022-12-23T03:21:39.770Z,3.95
2022-12-23T03:24:18.038Z,3.70
2022-12-23T03:26:57.660Z,4.38
2022-12-23T03:29:44.025Z,4.15
2022-12-23T03:32:13.334Z,4.15
2022-12-23T03:34:44.421Z,4.05
2022-12-23T03:37:14.369Z,4.50
2022-12-23T03:39:47.247Z,3.75
2022-12-23T03:42:29.081Z,4.90
2022-12-23T03:45:36.213Z,3.80
2022-12-23T03:47:50.806Z,4.18
2022-12-23T03:50:20.301Z,4.33
2022-12-23T03:52:58.114Z,3.80
2022-12-23T03:55:33.530Z,4.18
2022-12-23T03:58:17.991Z,4.03
2022-12-23T04:00:50.677Z,3.75
2022-12-23T04:03:22.968Z,4.13
2022-12-23T04:05:59.779Z,4.20
2022-12-23T04:08:31.066Z,4.03
2022-12-23T04:10:58.550Z,4.00
2022-12-23T04:13:27.316Z,4.68
2022-12-23T04:15:54.264Z,3.93
2022-12-23T04:18:20.801Z,3.45
2022-12-23T04:20:47.234Z,3.58
2022-12-23T04:23:13.644Z,3.30
2022-12-23T04:25:40.125Z,3.85
2022-12-23T04:28:06.723Z,4.07
2022-12-23T04:30:34.581Z,3.47
2022-12-23T04:33:01.994Z,3.35
2022-12-23T04:35:29.086Z,3.17
2022-12-23T04:37:55.523Z,3.33
2022-12-23T04:40:22.031Z,3.60
2022-12-23T04:42:48.437Z,3.53
2022-12-23T04:45:15.134Z,3.65
2022-12-23T04:47:41.598Z,4.53
2022-12-23T04:50:13.173Z,2.97
2022-12-23T04:52:39.569Z,3.37
2022-12-23T04:55:06.604Z,3.28
2022-12-23T04:57:33.144Z,3.30
2022-12-23T04:59:59.611Z,3.67
2022-12-23T05:02:26.185Z,3.95
2022-12-23T05:04:52.791Z,3.20
2022-12-23T05:07:19.467Z,3.30
2022-12-23T05:09:45.957Z,3.72
2022-12-23T05:12:12.596Z,3.28
2022-12-23T05:14:39.155Z,4.18
2022-12-23T05:17:07.940Z,3.83
2022-12-23T05:19:34.693Z,3.25
2022-12-23T05:22:01.231Z,3.50
2022-12-23T05:24:27.667Z,3.35
2022-12-23T05:26:59.653Z,4.13
2022-12-23T05:29:27.090Z,3.70
2022-12-23T05:31:53.829Z,2.90
2022-12-23T05:34:20.821Z,3.20
2022-12-23T05:36:47.320Z,4.03
2022-12-23T05:39:13.862Z,4.45
2022-12-23T05:41:40.550Z,3.57
2022-12-23T05:44:07.080Z,4.03
2022-12-23T05:46:33.840Z,3.83
2022-12-23T05:49:00.536Z,3.78
2022-12-23T05:51:27.175Z,3.65
2022-12-23T05:53:53.656Z,3.13
2022-12-23T05:56:20.156Z,3.72
2022-12-23T05:58:46.601Z,3.70
2022-12-23T06:01:14.287Z,3.45
2022-12-23T06:03:40.921Z,3.75
2022-12-23T06:06:07.607Z,2.90
2022-12-23T06:08:34.115Z,3.13
2022-12-23T06:11:00.574Z,2.97
2022-12-23T06:13:27.110Z,3.53
2022-12-23T06:15:53.508Z,3.00
2022-12-23T06:18:19.958Z,3.17
2022-12-23T06:20:47.754Z,3.63
2022-12-23T06:23:14.280Z,2.92
2022-12-23T06:25:40.851Z,2.92
2022-12-23T06:28:07.973Z,2.72
2022-12-23T06:30:35.104Z,3.33
2022-12-23T06:33:01.952Z,3.28
2022-12-23T06:35:28.470Z,2.95
2022-12-23T06:37:54.965Z,3.13
2022-12-23T06:40:21.509Z,3.20
2022-12-23T06:42:47.962Z,3.27
2022-12-23T06:45:14.690Z,3.33
2022-12-23T06:47:41.207Z,3.55
2022-12-23T06:50:09.079Z,2.70
2022-12-23T06:52:35.563Z,3.47
2022-12-23T06:55:01.946Z,3.57
2022-12-23T06:57:28.405Z,3.33
2022-12-23T06:59:54.961Z,3.72
2022-12-23T07:02:21.452Z,3.00
2022-12-23T07:04:48.017Z,3.25
2022-12-23T07:07:14.485Z,2.67
2022-12-23T07:09:40.980Z,2.97
2022-12-23T07:12:07.754Z,3.25
2022-12-23T07:14:34.261Z,3.03
2022-12-23T07:17:01.076Z,3.65
2022-12-23T07:19:27.580Z,2.67
2022-12-23T07:21:54.313Z,3.30
2022-12-23T07:24:21.066Z,3.13
2022-12-23T07:26:47.536Z,2.92
2022-12-23T07:29:14.111Z,3.40
2022-12-23T07:31:41.210Z,2.73
2022-12-23T07:34:08.510Z,2.85
2022-12-23T07:36:35.298Z,3.20
2022-12-23T07:39:01.768Z,3.22
2022-12-23T07:41:28.292Z,3.42
2022-12-23T07:43:54.771Z,3.77
2022-12-23T07:46:21.390Z,3.47
2022-12-23T07:48:47.965Z,3.17
2022-12-23T07:51:14.540Z,3.33
2022-12-23T07:53:41.089Z,3.63
2022-12-23T07:56:07.971Z,3.67
2022-12-23T07:58:34.528Z,3.20
2022-12-23T08:01:03.171Z,3.60
2022-12-23T08:03:29.916Z,3.30
2022-12-23T08:06:08.420Z,3.70
2022-12-23T08:08:35.784Z,4.57
2022-12-23T08:11:04.582Z,3.58
2022-12-23T08:13:33.087Z,3.50
2022-12-23T08:16:01.211Z,4.40
2022-12-23T08:18:30.567Z,4.32
2022-12-23T08:21:19.334Z,4.20
2022-12-23T08:23:47.379Z,4.82
2022-12-23T08:26:17.645Z,5.60
2022-12-23T08:28:44.989Z,5.05
2022-12-23T08:31:21.493Z,5.90
2022-12-23T08:33:50.561Z,6.90
2022-12-23T08:36:23.023Z,6.28
2022-12-23T08:38:52.177Z,6.40
2022-12-23T08:41:23.093Z,7.20
2022-12-23T08:43:49.954Z,6.70
2022-12-23T08:46:16.583Z,6.63
2022-12-23T08:48:49.403Z,6.28
2022-12-23T08:51:17.650Z,5.95
2022-12-23T08:53:44.802Z,6.78
2022-12-23T08:56:14.721Z,6.53
2022-12-23T08:58:43.554Z,7.00
2022-12-23T09:01:12.827Z,6.40
2022-12-23T09:03:40.443Z,7.47
2022-12-23T09:06:10.552Z,6.22
2022-12-23T09:08:37.700Z,6.38
2022-12-23T09:11:04.634Z,6.37
2022-12-23T09:13:35.672Z,6.95
2022-12-23T09:16:03.542Z,7.50
2022-12-23T09:18:30.031Z,7.88
2022-12-23T09:21:01.491Z,8.07
2022-12-23T09:23:28.272Z,7.83
2022-12-23T09:25:55.384Z,8.13
2022-12-23T09:28:22.212Z,7.68
2022-12-23T09:30:48.784Z,7.88
2022-12-23T09:33:15.561Z,7.75
2022-12-23T09:35:42.017Z,8.00
2022-12-23T09:38:08.626Z,6.78
2022-12-23T09:40:37.472Z,7.13
2022-12-23T09:43:14.548Z,7.18
2022-12-23T09:46:06.221Z,7.32
2022-12-23T09:48:38.910Z,7.00
2022-12-23T09:51:06.179Z,7.80
2022-12-23T09:54:03.829Z,8.88
2022-12-23T09:57:02.677Z,9.63
2022-12-23T09:59:44.440Z,8.52
2022-12-23T10:02:31.696Z,8.10
2022-12-23T10:05:32.451Z,8.68
2022-12-23T10:08:04.090Z,8.70
2022-12-23T10:10:42.871Z,8.50
2022-12-23T10:13:38.967Z,8.73
2022-12-23T10:16:13.001Z,8.10
2022-12-23T10:19:02.601Z,7.15
2022-12-23T10:21:34.700Z,6.85
2022-12-23T10:24:12.531Z,7.47
2022-12-23T10:26:46.929Z,7.65
2022-12-23T10:29:19.901Z,7.00
2022-12-23T10:32:15.126Z,7.55
2022-12-23T10:35:31.562Z,6.38
2022-12-23T10:38:11.144Z,7.10
2022-12-23T10:41:12.048Z,6.93
2022-12-23T10:43:51.646Z,6.07
2022-12-23T10:46:18.580Z,6.30
2022-12-23T10:49:05.943Z,5.53
2022-12-23T10:51:41.877Z,6.03
2022-12-23T10:54:17.080Z,7.10
2022-12-23T10:56:44.533Z,5.93
2022-12-23T10:59:15.336Z,7.22
2022-12-23T11:01:47.663Z,6.50
2022-12-23T11:04:17.964Z,7.03
2022-12-23T11:06:48.409Z,6.97
2022-12-23T11:09:19.180Z,7.37
2022-12-23T11:12:01.346Z,7.50
2022-12-23T11:14:50.663Z,6.65
2022-12-23T11:17:24.699Z,6.97
2022-12-23T11:20:14.174Z,7.78
2022-12-23T11:22:52.167Z,7.60
2022-12-23T11:25:27.552Z,7.55
2022-12-23T11:28:19.538Z,8.07
2022-12-23T11:30:50.384Z,7.10
2022-12-23T11:33:45.535Z,7.85
2022-12-23T11:36:25.028Z,8.30
2022-12-23T11:39:05.012Z,9.85
2022-12-23T11:41:38.524Z,8.57
2022-12-23T11:44:28.895Z,9.90
2022-12-23T11:46:55.570Z,8.77
2022-12-23T11:49:26.918Z,10.13
2022-12-23T11:52:11.943Z,10.57
2022-12-23T11:54:39.530Z,11.73
2022-12-23T11:57:15.547Z,12.90
2022-12-23T11:59:51.522Z,13.27
2022-12-23T12:02:39.773Z,12.57
2022-12-23T12:05:15.335Z,12.63
2022-12-23T12:07:44.055Z,13.02
2022-12-23T12:10:19.400Z,13.18
2022-12-23T12:12:52.767Z,12.07
2022-12-23T12:15:41.152Z,12.57
2022-12-23T12:18:13.230Z,11.55
2022-12-23T12:20:45.482Z,10.85
2022-12-23T12:23:21.193Z,10.82
2022-12-23T12:25:53.759Z,10.82
2022-12-23T12:28:34.510Z,10.43
2022-12-23T12:31:35.472Z,10.50
2022-12-23T12:34:53.404Z,9.40
2022-12-23T12:37:41.049Z,10.00
2022-12-23T12:40:16.777Z,9.20
2022-12-23T12:42:52.563Z,9.77
2022-12-23T12:45:38.072Z,9.85
2022-12-23T12:48:26.858Z,9.45
2022-12-23T12:51:12.544Z,9.32
2022-12-23T12:54:05.188Z,8.85
2022-12-23T12:56:40.753Z,9.63
2022-12-23T12:59:16.864Z,8.48
2022-12-23T13:02:28.389Z,8.88
2022-12-23T13:05:20.286Z,10.13
2022-12-23T13:08:04.980Z,8.43
2022-12-23T13:11:02.937Z,9.00
2022-12-23T13:13:39.348Z,9.63
2022-12-23T13:16:25.404Z,8.98
2022-12-23T13:19:03.824Z,8.57
2022-12-23T13:21:48.425Z,8.55
2022-12-23T13:24:28.083Z,7.83
2022-12-23T13:27:18.865Z,8.75
2022-12-23T13:29:58.071Z,8.80
2022-12-23T13:32:45.274Z,7.75
2022-12-23T13:35:22.819Z,9.30
2022-12-23T13:38:01.496Z,9.20
2022-12-23T13:40:49.223Z,8.95
2022-12-23T13:43:20.338Z,8.77
2022-12-23T13:45:49.003Z,8.18
2022-12-23T13:48:38.152Z,9.57
2022-12-23T13:51:20.326Z,8.37
2022-12-23T13:54:04.952Z,7.18
2022-12-23T13:56:59.510Z,8.15
2022-12-23T13:59:39.375Z,8.57
2022-12-23T14:02:37.622Z,8.00
2022-12-23T14:05:10.479Z,8.70
2022-12-23T14:07:44.878Z,9.55
2022-12-23T14:10:19.965Z,9.35
2022-12-23T14:12:47.698Z,11.45
2022-12-23T14:15:38.720Z,10.35
2022-12-23T14:18:40.332Z,8.90
2022-12-23T14:21:19.925Z,8.55
2022-12-23T14:24:10.910Z,8.27
2022-12-23T14:26:51.904Z,8.50
2022-12-23T14:29:59.889Z,7.72
2022-12-23T14:32:40.946Z,8.57
2022-12-23T14:35:46.654Z,8.05
2022-12-23T14:38:15.656Z,6.90
2022-12-23T14:40:42.092Z,7.68
2022-12-23T14:43:27.334Z,7.57
2022-12-23T14:45:54.937Z,6.97
2022-12-23T14:48:37.167Z,8.55
2022-12-23T14:51:09.416Z,9.20
2022-12-23T14:53:57.087Z,7.28
2022-12-23T14:56:38.816Z,7.95
2022-12-23T14:59:10.769Z,7.47
2022-12-23T15:01:42.042Z,7.10
2022-12-23T15:04:20.637Z,6.55
2022-12-23T15:06:50.997Z,7.20
2022-12-23T15:09:30.895Z,6.32
2022-12-23T15:12:05.986Z,6.40
2022-12-23T15:14:46.418Z,6.60
2022-12-23T15:17:29.885Z,7.53
2022-12-23T15:20:18.513Z,6.88
2022-12-23T15:22:46.742Z,7.35
2022-12-23T15:25:25.352Z,7.10
2022-12-23T15:28:00.840Z,7.90
2022-12-23T15:30:36.501Z,6.60
2022-12-23T15:33:27.786Z,6.78
2022-12-23T15:35:53.704Z,6.40
2022-12-23T15:38:22.432Z,6.37
2022-12-23T15:41:22.485Z,6.80
2022-12-23T15:43:49.195Z,6.55
2022-12-23T15:46:28.524Z,6.10
2022-12-23T15:48:56.747Z,6.13
2022-12-23T15:51:49.958Z,6.70
2022-12-23T15:54:31.119Z,6.40
2022-12-23T15:57:00.508Z,6.40
2022-12-23T15:59:31.719Z,6.72
2022-12-23T16:01:58.999Z,6.85
2022-12-23T16:04:29.249Z,6.93
2022-12-23T16:06:56.602Z,7.10
2022-12-23T16:09:31.550Z,6.72
2022-12-23T16:12:20.623Z,6.60
2022-12-23T16:15:22.783Z,6.60
2022-12-23T16:17:49.319Z,6.00
2022-12-23T16:20:15.678Z,5.72
2022-12-23T16:22:44.582Z,6.03
2022-12-23T16:25:25.653Z,6.55
2022-12-23T16:28:03.551Z,7.82
2022-12-23T16:30:36.309Z,6.00
2022-12-23T16:33:06.806Z,6.47
2022-12-23T16:35:39.208Z,6.32
2022-12-23T16:38:16.596Z,5.20
2022-12-23T16:40:44.804Z,6.30
2022-12-23T16:43:11.368Z,5.40
2022-12-23T16:45:38.557Z,5.80
2022-12-23T16:48:20.414Z,6.18
2022-12-23T16:50:47.565Z,4.95
2022-12-23T16:53:14.446Z,5.55
2022-12-23T16:55:48.222Z,5.60
2022-12-23T16:58:17.870Z,5.72
2022-12-23T17:00:44.728Z,6.18
2022-12-23T17:03:16.380Z,6.78
2022-12-23T17:05:44.130Z,6.15
2022-12-23T17:08:10.553Z,6.37
2022-12-23T17:10:38.742Z,7.35
2022-12-23T17:13:05.361Z,7.40
2022-12-23T17:15:32.385Z,7.38
2022-12-23T17:17:58.905Z,8.20
2022-12-23T17:20:25.446Z,9.03
2022-12-23T17:22:54.983Z,7.88
2022-12-23T17:25:26.361Z,8.13
2022-12-23T17:27:53.651Z,7.28
2022-12-23T17:30:25.283Z,7.28
2022-12-23T17:32:56.514Z,6.13
2022-12-23T17:35:24.806Z,7.25
2022-12-23T17:37:51.884Z,7.43
2022-12-23T17:40:19.647Z,8.30
2022-12-23T17:42:47.336Z,7.63
2022-12-23T17:45:26.365Z,7.10
2022-12-23T17:47:52.933Z,7.35
2022-12-23T17:50:20.289Z,7.10
2022-12-23T17:52:47.049Z,7.50
2022-12-23T17:55:22.530Z,8.98
2022-12-23T17:57:49.031Z,6.67
2022-12-23T18:00:22.672Z,7.82
2022-12-23T18:02:54.568Z,8.18
2022-12-23T18:05:24.106Z,8.13
2022-12-23T18:07:51.825Z,7.32
2022-12-23T18:10:22.555Z,8.07
2022-12-23T18:12:55.773Z,7.68
2022-12-23T18:15:30.094Z,7.28
2022-12-23T18:17:56.593Z,6.18
2022-12-23T18:20:24.225Z,5.80
2022-12-23T18:22:52.772Z,6.40
2022-12-23T18:25:27.060Z,5.65
2022-12-23T18:27:54.532Z,5.60
2022-12-23T18:30:21.827Z,5.50
2022-12-23T18:32:49.017Z,5.30
2022-12-23T18:35:44.058Z,4.90
2022-12-23T18:38:11.095Z,6.13
2022-12-23T18:40:38.757Z,5.22
2022-12-23T18:43:05.599Z,4.50
2022-12-23T18:45:41.949Z,4.13
2022-12-23T18:48:09.447Z,4.23
2022-12-23T18:50:38.636Z,4.30
2022-12-23T18:53:06.325Z,3.38
2022-12-23T18:55:33.597Z,3.67
2022-12-23T18:58:00.954Z,3.42
2022-12-23T19:00:30.722Z,3.33
2022-12-23T19:02:57.608Z,3.28
2022-12-23T19:05:27.305Z,3.58
2022-12-23T19:07:56.102Z,3.60
2022-12-23T19:10:36.121Z,3.70
2022-12-23T19:13:02.581Z,3.70
2022-12-23T19:15:29.222Z,4.03
2022-12-23T19:17:55.717Z,3.28
2022-12-23T19:20:22.232Z,3.08
2022-12-23T19:22:49.255Z,3.38
2022-12-23T19:25:18.352Z,3.40
2022-12-23T19:27:46.010Z,3.38
2022-12-23T19:30:15.856Z,3.58
2022-12-23T19:32:42.696Z,3.28
2022-12-23T19:35:12.472Z,3.63
2022-12-23T19:37:39.076Z,3.60
2022-12-23T19:40:06.829Z,3.50
2022-12-23T19:42:36.230Z,4.30
2022-12-23T19:45:02.808Z,2.90
2022-12-23T19:47:29.259Z,3.05
2022-12-23T19:49:55.896Z,2.83
2022-12-23T19:52:22.417Z,4.63
2022-12-23T19:54:48.924Z,3.03
2022-12-23T19:57:15.410Z,3.58
2022-12-23T19:59:41.949Z,3.80
2022-12-23T20:02:14.033Z,3.50
2022-12-23T20:04:40.836Z,3.85
2022-12-23T20:07:07.826Z,3.03
2022-12-23T20:09:34.310Z,3.15
2022-12-23T20:12:01.828Z,3.55
2022-12-23T20:14:32.312Z,4.17
2022-12-23T20:17:00.890Z,4.00
2022-12-23T20:19:27.715Z,3.78
2022-12-23T20:21:54.169Z,3.13
2022-12-23T20:24:20.672Z,3.70
2022-12-23T20:26:47.609Z,3.93
2022-12-23T20:29:14.353Z,4.35
2022-12-23T20:31:41.279Z,4.25
2022-12-23T20:34:11.839Z,3.60
2022-12-23T20:36:38.476Z,4.22
2022-12-23T20:39:05.877Z,3.50
2022-12-23T20:41:32.840Z,3.33
2022-12-23T20:46:46.093Z,3.55
2022-12-23T20:49:12.811Z,3.15
2022-12-23T20:51:39.261Z,2.50
2022-12-23T20:54:05.849Z,3.25
2022-12-23T20:56:32.363Z,3.65
2022-12-23T20:58:59.998Z,2.45
2022-12-23T21:01:29.880Z,1.88
2022-12-23T21:03:58.335Z,2.00
2022-12-23T21:06:25.697Z,2.05
2022-12-23T21:08:52.654Z,3.00
2022-12-23T21:11:19.375Z,2.22
2022-12-23T21:13:50.135Z,2.25
2022-12-23T21:16:17.291Z,1.73
2022-12-23T21:18:46.731Z,1.85
2022-12-23T21:21:13.346Z,2.03
2022-12-23T21:23:41.853Z,1.92
2022-12-23T21:26:11.950Z,1.50
2022-12-23T21:28:39.940Z,1.73
2022-12-23T21:31:07.390Z,2.65
2022-12-23T21:33:39.074Z,2.42
2022-12-23T21:36:06.719Z,2.38
2022-12-23T21:38:39.849Z,1.45
2022-12-23T21:41:09.409Z,2.37
2022-12-23T21:43:36.332Z,1.45
2022-12-23T21:46:06.159Z,1.38
2022-12-23T21:48:35.185Z,1.83
2022-12-23T21:51:07.020Z,1.75
2022-12-23T21:53:36.126Z,2.10
2022-12-23T21:56:09.500Z,1.00
2022-12-23T21:58:37.080Z,1.15
2022-12-23T22:01:08.362Z,1.88
2022-12-23T22:03:35.457Z,1.05
2022-12-23T22:06:13.329Z,1.53
2022-12-23T22:08:40.174Z,1.80
2022-12-23T22:11:08.899Z,1.40
2022-12-23T22:13:36.003Z,1.50
2022-12-23T22:16:02.646Z,1.88
2022-12-23T22:18:31.480Z,2.50
2022-12-23T22:21:00.334Z,1.70
2022-12-23T22:23:26.753Z,2.05
2022-12-23T22:25:54.413Z,1.88
2022-12-23T22:28:23.257Z,1.75
2022-12-23T22:30:49.738Z,1.00
2022-12-23T22:33:16.241Z,1.60
2022-12-23T22:35:43.197Z,2.08
2022-12-23T22:38:09.951Z,1.88
2022-12-23T22:40:36.362Z,1.58
2022-12-23T22:43:03.044Z,1.97
2022-12-23T22:45:29.605Z,1.55
2022-12-23T22:47:56.198Z,1.40
2022-12-23T22:50:22.878Z,1.27
2022-12-23T22:52:49.350Z,2.38
2022-12-23T22:55:15.913Z,2.17
2022-12-23T22:57:42.321Z,1.90
2022-12-23T23:00:12.633Z,1.20
2022-12-23T23:02:39.512Z,1.33
2022-12-23T23:05:12.475Z,2.25
2022-12-23T23:07:39.938Z,1.63
2022-12-23T23:10:07.444Z,1.70
2022-12-23T23:12:33.959Z,1.80
2022-12-23T23:15:00.435Z,1.08
2022-12-23T23:17:28.696Z,2.05
2022-12-23T23:19:55.863Z,1.90
2022-12-23T23:22:24.910Z,2.10
2022-12-23T23:24:52.206Z,1.85
2022-12-23T23:27:19.026Z,2.17
2022-12-23T23:29:45.654Z,1.75
2022-12-23T23:32:12.342Z,1.23
2022-12-23T23:34:38.948Z,2.20
2022-12-23T23:37:05.406Z,2.15
2022-12-23T23:39:32.160Z,1.85
2022-12-23T23:41:58.983Z,2.22
2022-12-23T23:44:25.515Z,1.30
2022-12-23T23:46:52.079Z,2.50
2022-12-23T23:49:18.542Z,1.83
2022-12-23T23:51:45.092Z,1.60
2022-12-23T23:54:11.617Z,1.80
2022-12-23T23:56:39.510Z,1.97
2022-12-23T23:59:07.018Z,2.20
